sensor_id;sensor_type;location;lat;lon;timestamp;pressure;altitude;pressure_sealevel;temperature;humidity
54854;BME280;40747;49.480;8.658;2023-08-06T00:00:04;99466.66;;;16.69;100.00
54854;BME280;40747;49.480;8.658;2023-08-06T00:02:30;99456.22;;;16.66;100.00
54854;BME280;40747;49.480;8.658;2023-08-06T00:04:55;99468.34;;;16.70;100.00
54854;BME280;40747;49.480;8.658;2023-08-06T00:07:20;99450.91;;;16.79;100.00
54854;BME280;40747;49.480;8.658;2023-08-06T00:09:45;99455.91;;;16.83;100.00
54854;BME280;40747;49.480;8.658;2023-08-06T00:12:11;99458.78;;;16.80;100.00
54854;BME280;40747;49.480;8.658;2023-08-06T00:14:36;99453.13;;;16.85;99.93
54854;BME280;40747;49.480;8.658;2023-08-06T00:17:01;99438.88;;;16.86;100.00
54854;BME280;40747;49.480;8.658;2023-08-06T00:19:27;99444.84;;;16.77;100.00
54854;BME280;40747;49.480;8.658;2023-08-06T00:21:52;99441.84;;;16.81;100.00
54854;BME280;40747;49.480;8.658;2023-08-06T00:24:17;99426.44;;;16.74;100.00
54854;BME280;40747;49.480;8.658;2023-08-06T00:26:43;99428.25;;;16.73;100.00
54854;BME280;40747;49.480;8.658;2023-08-06T00:29:08;99431.66;;;16.75;99.25
54854;BME280;40747;49.480;8.658;2023-08-06T00:31:33;99431.13;;;16.83;98.36
54854;BME280;40747;49.480;8.658;2023-08-06T00:33:59;99429.63;;;16.92;100.00
54854;BME280;40747;49.480;8.658;2023-08-06T00:36:24;99421.75;;;16.90;100.00
54854;BME280;40747;49.480;8.658;2023-08-06T00:38:49;99421.00;;;16.88;98.10
54854;BME280;40747;49.480;8.658;2023-08-06T00:41:14;99421.66;;;16.92;100.00
54854;BME280;40747;49.480;8.658;2023-08-06T00:43:40;99410.94;;;16.93;97.78
54854;BME280;40747;49.480;8.658;2023-08-06T00:46:05;99404.53;;;16.96;98.97
54854;BME280;40747;49.480;8.658;2023-08-06T00:48:31;99412.72;;;16.93;99.92
54854;BME280;40747;49.480;8.658;2023-08-06T00:50:57;99403.66;;;16.95;100.00
54854;BME280;40747;49.480;8.658;2023-08-06T00:53:22;99389.72;;;16.92;99.07
54854;BME280;40747;49.480;8.658;2023-08-06T00:55:48;99390.59;;;16.92;99.56
54854;BME280;40747;49.480;8.658;2023-08-06T00:58:14;99392.72;;;16.87;99.40
54854;BME280;40747;49.480;8.658;2023-08-06T01:00:41;99399.09;;;16.84;97.53
54854;BME280;40747;49.480;8.658;2023-08-06T01:03:06;99393.97;;;16.81;98.21
54854;BME280;40747;49.480;8.658;2023-08-06T01:05:31;99392.59;;;16.88;98.32
54854;BME280;40747;49.480;8.658;2023-08-06T01:08:05;99394.84;;;16.95;96.88
54854;BME280;40747;49.480;8.658;2023-08-06T01:11:02;99381.56;;;16.95;95.37
54854;BME280;40747;49.480;8.658;2023-08-06T01:13:47;99393.44;;;17.02;97.32
54854;BME280;40747;49.480;8.658;2023-08-06T01:16:15;99381.97;;;16.88;98.35
54854;BME280;40747;49.480;8.658;2023-08-06T01:18:42;99383.13;;;16.84;99.26
54854;BME280;40747;49.480;8.658;2023-08-06T01:21:11;99384.09;;;16.83;98.49
54854;BME280;40747;49.480;8.658;2023-08-06T01:23:36;99380.69;;;16.81;99.15
54854;BME280;40747;49.480;8.658;2023-08-06T01:26:36;99377.47;;;17.02;99.06
54854;BME280;40747;49.480;8.658;2023-08-06T01:29:47;99371.19;;;16.90;97.44
54854;BME280;40747;49.480;8.658;2023-08-06T01:32:14;99365.03;;;16.90;96.90
54854;BME280;40747;49.480;8.658;2023-08-06T01:34:43;99364.41;;;16.99;96.58
54854;BME280;40747;49.480;8.658;2023-08-06T01:37:11;99344.59;;;16.90;95.32
54854;BME280;40747;49.480;8.658;2023-08-06T01:39:36;99356.69;;;17.07;96.86
54854;BME280;40747;49.480;8.658;2023-08-06T01:42:01;99352.34;;;17.06;95.36
54854;BME280;40747;49.480;8.658;2023-08-06T01:44:27;99347.75;;;17.08;94.10
54854;BME280;40747;49.480;8.658;2023-08-06T01:46:53;99349.06;;;17.02;92.72
54854;BME280;40747;49.480;8.658;2023-08-06T01:49:18;99323.31;;;16.90;93.10
54854;BME280;40747;49.480;8.658;2023-08-06T01:51:43;99346.97;;;16.95;92.24
54854;BME280;40747;49.480;8.658;2023-08-06T01:54:09;99341.72;;;17.06;91.43
54854;BME280;40747;49.480;8.658;2023-08-06T01:56:34;99321.00;;;16.98;93.45
54854;BME280;40747;49.480;8.658;2023-08-06T01:58:59;99326.41;;;16.97;92.73
54854;BME280;40747;49.480;8.658;2023-08-06T02:01:25;99333.56;;;16.83;92.26
54854;BME280;40747;49.480;8.658;2023-08-06T02:03:50;99337.69;;;16.87;93.15
54854;BME280;40747;49.480;8.658;2023-08-06T02:06:15;99342.06;;;16.88;93.61
54854;BME280;40747;49.480;8.658;2023-08-06T02:08:41;99345.50;;;16.91;94.21
54854;BME280;40747;49.480;8.658;2023-08-06T02:11:07;99332.63;;;16.84;95.37
54854;BME280;40747;49.480;8.658;2023-08-06T02:13:32;99344.44;;;16.80;95.13
54854;BME280;40747;49.480;8.658;2023-08-06T02:15:57;99341.03;;;16.78;95.25
54854;BME280;40747;49.480;8.658;2023-08-06T02:18:23;99343.16;;;16.73;94.58
54854;BME280;40747;49.480;8.658;2023-08-06T02:20:56;99336.47;;;16.80;96.56
54854;BME280;40747;49.480;8.658;2023-08-06T02:23:22;99341.69;;;16.69;95.80
54854;BME280;40747;49.480;8.658;2023-08-06T02:25:47;99331.91;;;16.69;96.37
54854;BME280;40747;49.480;8.658;2023-08-06T02:28:13;99325.28;;;16.75;96.26
54854;BME280;40747;49.480;8.658;2023-08-06T02:30:38;99328.72;;;16.64;94.83
54854;BME280;40747;49.480;8.658;2023-08-06T02:33:03;99322.56;;;16.64;96.17
54854;BME280;40747;49.480;8.658;2023-08-06T02:35:28;99327.88;;;16.64;95.32
54854;BME280;40747;49.480;8.658;2023-08-06T02:37:54;99331.50;;;16.63;96.19
54854;BME280;40747;49.480;8.658;2023-08-06T02:40:19;99327.66;;;16.67;94.99
54854;BME280;40747;49.480;8.658;2023-08-06T02:42:44;99324.47;;;16.62;95.13
54854;BME280;40747;49.480;8.658;2023-08-06T02:45:10;99334.69;;;16.68;95.31
54854;BME280;40747;49.480;8.658;2023-08-06T02:47:35;99330.88;;;16.59;95.89
54854;BME280;40747;49.480;8.658;2023-08-06T02:50:00;99327.88;;;16.64;96.70
54854;BME280;40747;49.480;8.658;2023-08-06T02:52:26;99336.47;;;16.67;96.47
54854;BME280;40747;49.480;8.658;2023-08-06T02:54:51;99317.91;;;16.54;96.63
54854;BME280;40747;49.480;8.658;2023-08-06T02:57:16;99319.94;;;16.38;96.66
54854;BME280;40747;49.480;8.658;2023-08-06T02:59:42;99320.59;;;16.42;97.08
54854;BME280;40747;49.480;8.658;2023-08-06T03:02:07;99318.28;;;16.37;97.39
54854;BME280;40747;49.480;8.658;2023-08-06T03:04:32;99312.19;;;16.35;97.68
54854;BME280;40747;49.480;8.658;2023-08-06T03:06:58;99304.47;;;16.19;97.20
54854;BME280;40747;49.480;8.658;2023-08-06T03:09:23;99321.25;;;16.32;97.06
54854;BME280;40747;49.480;8.658;2023-08-06T03:11:48;99318.69;;;16.31;97.41
54854;BME280;40747;49.480;8.658;2023-08-06T03:14:14;99322.53;;;16.27;98.35
54854;BME280;40747;49.480;8.658;2023-08-06T03:16:39;99306.91;;;16.22;97.94
54854;BME280;40747;49.480;8.658;2023-08-06T03:19:04;99315.28;;;16.29;98.82
54854;BME280;40747;49.480;8.658;2023-08-06T03:21:30;99303.47;;;16.33;97.43
54854;BME280;40747;49.480;8.658;2023-08-06T03:23:55;99297.97;;;16.23;98.37
54854;BME280;40747;49.480;8.658;2023-08-06T03:26:20;99301.06;;;16.30;98.33
54854;BME280;40747;49.480;8.658;2023-08-06T03:28:46;99304.47;;;16.32;98.23
54854;BME280;40747;49.480;8.658;2023-08-06T03:31:11;99304.47;;;16.32;98.03
54854;BME280;40747;49.480;8.658;2023-08-06T03:33:36;99301.56;;;16.35;98.30
54854;BME280;40747;49.480;8.658;2023-08-06T03:36:02;99287.75;;;16.30;98.50
54854;BME280;40747;49.480;8.658;2023-08-06T03:38:27;99302.88;;;16.29;98.33
54854;BME280;40747;49.480;8.658;2023-08-06T03:40:53;99300.81;;;16.33;96.61
54854;BME280;40747;49.480;8.658;2023-08-06T03:43:18;99294.03;;;16.29;97.24
54854;BME280;40747;49.480;8.658;2023-08-06T03:45:43;99299.03;;;16.33;96.57
54854;BME280;40747;49.480;8.658;2023-08-06T03:48:09;99295.81;;;16.41;97.47
54854;BME280;40747;49.480;8.658;2023-08-06T03:50:34;99294.03;;;16.29;97.26
54854;BME280;40747;49.480;8.658;2023-08-06T03:53:00;99297.47;;;16.18;97.96
54854;BME280;40747;49.480;8.658;2023-08-06T03:55:25;99299.34;;;16.29;98.04
54854;BME280;40747;49.480;8.658;2023-08-06T03:57:51;99298.81;;;16.24;98.75
54854;BME280;40747;49.480;8.658;2023-08-06T04:00:16;99293.94;;;16.17;99.75
54854;BME280;40747;49.480;8.658;2023-08-06T04:02:42;99300.53;;;16.12;98.62
54854;BME280;40747;49.480;8.658;2023-08-06T04:05:07;99302.25;;;16.13;99.58
54854;BME280;40747;49.480;8.658;2023-08-06T04:07:33;99284.06;;;16.19;100.00
54854;BME280;40747;49.480;8.658;2023-08-06T04:10:00;99293.09;;;16.17;99.75
54854;BME280;40747;49.480;8.658;2023-08-06T04:12:26;99297.88;;;16.12;100.00
54854;BME280;40747;49.480;8.658;2023-08-06T04:14:52;99296.84;;;16.01;100.00
54854;BME280;40747;49.480;8.658;2023-08-06T04:17:19;99294.06;;;15.90;100.00
54854;BME280;40747;49.480;8.658;2023-08-06T04:19:52;99299.59;;;16.00;100.00
54854;BME280;40747;49.480;8.658;2023-08-06T04:22:18;99297.78;;;16.00;100.00
54854;BME280;40747;49.480;8.658;2023-08-06T04:24:44;99303.22;;;15.99;100.00
54854;BME280;40747;49.480;8.658;2023-08-06T04:27:10;99281.28;;;15.69;100.00
54854;BME280;40747;49.480;8.658;2023-08-06T04:29:36;99300.28;;;15.76;100.00
54854;BME280;40747;49.480;8.658;2023-08-06T04:32:03;99293.28;;;15.75;100.00
54854;BME280;40747;49.480;8.658;2023-08-06T04:34:29;99297.88;;;15.73;100.00
54854;BME280;40747;49.480;8.658;2023-08-06T04:36:54;99306.44;;;15.64;100.00
54854;BME280;40747;49.480;8.658;2023-08-06T04:39:20;99311.44;;;15.68;100.00
54854;BME280;40747;49.480;8.658;2023-08-06T04:41:45;99310.25;;;15.60;100.00
54854;BME280;40747;49.480;8.658;2023-08-06T04:44:10;99312.38;;;15.54;100.00
54854;BME280;40747;49.480;8.658;2023-08-06T04:46:36;99301.75;;;15.54;100.00
54854;BME280;40747;49.480;8.658;2023-08-06T04:49:01;99310.47;;;15.56;100.00
54854;BME280;40747;49.480;8.658;2023-08-06T04:51:26;99304.31;;;15.56;100.00
54854;BME280;40747;49.480;8.658;2023-08-06T04:53:52;99312.78;;;15.48;100.00
54854;BME280;40747;49.480;8.658;2023-08-06T04:56:17;99311.28;;;15.44;100.00
54854;BME280;40747;49.480;8.658;2023-08-06T04:58:43;99310.88;;;15.50;100.00
54854;BME280;40747;49.480;8.658;2023-08-06T05:01:08;99304.53;;;15.53;100.00
54854;BME280;40747;49.480;8.658;2023-08-06T05:03:33;99301.53;;;15.45;100.00
54854;BME280;40747;49.480;8.658;2023-08-06T05:05:59;99308.66;;;15.44;100.00
54854;BME280;40747;49.480;8.658;2023-08-06T05:08:24;99300.06;;;15.53;100.00
54854;BME280;40747;49.480;8.658;2023-08-06T05:10:49;99303.66;;;15.52;100.00
54854;BME280;40747;49.480;8.658;2023-08-06T05:13:15;99299.22;;;15.53;100.00
54854;BME280;40747;49.480;8.658;2023-08-06T05:15:41;99306.81;;;15.45;100.00
54854;BME280;40747;49.480;8.658;2023-08-06T05:18:08;99293.00;;;15.27;100.00
54854;BME280;40747;49.480;8.658;2023-08-06T05:20:36;99310.53;;;15.42;100.00
54854;BME280;40747;49.480;8.658;2023-08-06T05:23:02;99309.63;;;15.16;100.00
54854;BME280;40747;49.480;8.658;2023-08-06T05:25:27;99309.09;;;15.11;100.00
54854;BME280;40747;49.480;8.658;2023-08-06T05:27:52;99307.69;;;15.05;100.00
54854;BME280;40747;49.480;8.658;2023-08-06T05:30:18;99306.94;;;15.03;100.00
54854;BME280;40747;49.480;8.658;2023-08-06T05:32:43;99309.44;;;14.91;100.00
54854;BME280;40747;49.480;8.658;2023-08-06T05:35:09;99316.94;;;14.85;100.00
54854;BME280;40747;49.480;8.658;2023-08-06T05:37:34;99318.63;;;14.86;100.00
54854;BME280;40747;49.480;8.658;2023-08-06T05:39:59;99309.84;;;14.85;100.00
54854;BME280;40747;49.480;8.658;2023-08-06T05:42:24;99316.69;;;14.75;100.00
54854;BME280;40747;49.480;8.658;2023-08-06T05:44:50;99312.59;;;14.84;100.00
54854;BME280;40747;49.480;8.658;2023-08-06T05:47:15;99324.69;;;14.88;100.00
54854;BME280;40747;49.480;8.658;2023-08-06T05:49:40;99313.81;;;14.78;100.00
54854;BME280;40747;49.480;8.658;2023-08-06T05:52:06;99318.50;;;14.74;100.00
54854;BME280;40747;49.480;8.658;2023-08-06T05:54:33;99328.44;;;14.71;100.00
54854;BME280;40747;49.480;8.658;2023-08-06T05:56:58;99332.09;;;14.83;100.00
54854;BME280;40747;49.480;8.658;2023-08-06T05:59:23;99326.63;;;14.71;100.00
54854;BME280;40747;49.480;8.658;2023-08-06T06:01:49;99330.28;;;14.83;100.00
54854;BME280;40747;49.480;8.658;2023-08-06T06:04:14;99333.91;;;14.82;100.00
54854;BME280;40747;49.480;8.658;2023-08-06T06:06:40;99336.34;;;14.85;100.00
54854;BME280;40747;49.480;8.658;2023-08-06T06:09:07;99335.56;;;14.83;100.00
54854;BME280;40747;49.480;8.658;2023-08-06T06:11:32;99337.69;;;14.78;100.00
54854;BME280;40747;49.480;8.658;2023-08-06T06:13:57;99340.75;;;14.72;100.00
54854;BME280;40747;49.480;8.658;2023-08-06T06:16:22;99333.41;;;14.75;100.00
54854;BME280;40747;49.480;8.658;2023-08-06T06:18:48;99343.47;;;14.70;100.00
54854;BME280;40747;49.480;8.658;2023-08-06T06:21:13;99335.34;;;14.73;100.00
54854;BME280;40747;49.480;8.658;2023-08-06T06:23:38;99342.91;;;14.80;100.00
54854;BME280;40747;49.480;8.658;2023-08-06T06:26:04;99350.38;;;14.73;100.00
54854;BME280;40747;49.480;8.658;2023-08-06T06:28:29;99329.28;;;14.57;100.00
54854;BME280;40747;49.480;8.658;2023-08-06T06:31:00;99348.50;;;14.75;100.00
54854;BME280;40747;49.480;8.658;2023-08-06T06:33:26;99344.31;;;14.56;100.00
54854;BME280;40747;49.480;8.658;2023-08-06T06:35:51;99352.25;;;14.56;100.00
54854;BME280;40747;49.480;8.658;2023-08-06T06:38:16;99357.75;;;14.53;100.00
54854;BME280;40747;49.480;8.658;2023-08-06T06:40:42;99354.16;;;14.54;100.00
54854;BME280;40747;49.480;8.658;2023-08-06T06:43:07;99351.34;;;14.72;100.00
54854;BME280;40747;49.480;8.658;2023-08-06T06:45:32;99335.63;;;14.69;100.00
54854;BME280;40747;49.480;8.658;2023-08-06T06:47:57;99355.94;;;14.83;100.00
54854;BME280;40747;49.480;8.658;2023-08-06T06:50:23;99341.19;;;14.79;100.00
54854;BME280;40747;49.480;8.658;2023-08-06T06:52:49;99341.84;;;14.82;100.00
54854;BME280;40747;49.480;8.658;2023-08-06T06:55:17;99340.69;;;14.86;100.00
54854;BME280;40747;49.480;8.658;2023-08-06T06:57:42;99349.22;;;14.91;100.00
54854;BME280;40747;49.480;8.658;2023-08-06T07:00:08;99346.63;;;15.04;100.00
54854;BME280;40747;49.480;8.658;2023-08-06T07:02:34;99348.00;;;15.10;100.00
54854;BME280;40747;49.480;8.658;2023-08-06T07:04:59;99345.34;;;15.10;100.00
54854;BME280;40747;49.480;8.658;2023-08-06T07:07:24;99346.63;;;15.04;100.00
54854;BME280;40747;49.480;8.658;2023-08-06T07:09:49;99341.53;;;15.01;100.00
54854;BME280;40747;49.480;8.658;2023-08-06T07:12:15;99342.38;;;15.02;100.00
54854;BME280;40747;49.480;8.658;2023-08-06T07:14:40;99346.81;;;15.01;100.00
54854;BME280;40747;49.480;8.658;2023-08-06T07:17:05;99347.94;;;15.12;100.00
54854;BME280;40747;49.480;8.658;2023-08-06T07:19:31;99353.03;;;15.15;100.00
54854;BME280;40747;49.480;8.658;2023-08-06T07:21:56;99357.06;;;15.20;100.00
54854;BME280;40747;49.480;8.658;2023-08-06T07:24:21;99352.63;;;15.21;100.00
54854;BME280;40747;49.480;8.658;2023-08-06T07:26:47;99355.00;;;15.26;100.00
54854;BME280;40747;49.480;8.658;2023-08-06T07:29:12;99343.34;;;15.41;100.00
54854;BME280;40747;49.480;8.658;2023-08-06T07:31:37;99346.75;;;15.43;100.00
54854;BME280;40747;49.480;8.658;2023-08-06T07:34:03;99353.53;;;15.47;100.00
54854;BME280;40747;49.480;8.658;2023-08-06T07:36:28;99349.53;;;15.54;100.00
54854;BME280;40747;49.480;8.658;2023-08-06T07:38:54;99350.56;;;15.39;100.00
54854;BME280;40747;49.480;8.658;2023-08-06T07:41:25;99342.50;;;15.40;100.00
54854;BME280;40747;49.480;8.658;2023-08-06T07:43:51;99332.81;;;15.39;100.00
54854;BME280;40747;49.480;8.658;2023-08-06T07:46:17;99347.28;;;15.48;100.00
54854;BME280;40747;49.480;8.658;2023-08-06T07:48:42;99350.47;;;15.53;100.00
54854;BME280;40747;49.480;8.658;2023-08-06T07:51:07;99351.13;;;15.57;100.00
54854;BME280;40747;49.480;8.658;2023-08-06T07:53:33;99353.00;;;15.42;100.00
54854;BME280;40747;49.480;8.658;2023-08-06T07:55:58;99348.75;;;15.39;100.00
54854;BME280;40747;49.480;8.658;2023-08-06T07:58:24;99344.50;;;15.37;100.00
54854;BME280;40747;49.480;8.658;2023-08-06T08:00:50;99346.00;;;15.41;100.00
54854;BME280;40747;49.480;8.658;2023-08-06T08:03:16;99356.00;;;15.50;100.00
54854;BME280;40747;49.480;8.658;2023-08-06T08:05:42;99356.81;;;15.38;100.00
54854;BME280;40747;49.480;8.658;2023-08-06T08:08:08;99346.16;;;15.25;100.00
54854;BME280;40747;49.480;8.658;2023-08-06T08:10:34;99356.25;;;15.33;100.00
54854;BME280;40747;49.480;8.658;2023-08-06T08:13:01;99354.50;;;15.46;100.00
54854;BME280;40747;49.480;8.658;2023-08-06T08:15:28;99351.41;;;15.39;100.00
54854;BME280;40747;49.480;8.658;2023-08-06T08:17:54;99347.34;;;15.34;100.00
54854;BME280;40747;49.480;8.658;2023-08-06T08:20:20;99348.56;;;15.43;100.00
54854;BME280;40747;49.480;8.658;2023-08-06T08:22:46;99347.41;;;15.60;100.00
54854;BME280;40747;49.480;8.658;2023-08-06T08:25:11;99345.53;;;15.62;100.00
54854;BME280;40747;49.480;8.658;2023-08-06T08:27:36;99349.88;;;15.63;100.00
54854;BME280;40747;49.480;8.658;2023-08-06T08:30:02;99342.34;;;15.69;100.00
54854;BME280;40747;49.480;8.658;2023-08-06T08:32:27;99341.22;;;15.86;100.00
54854;BME280;40747;49.480;8.658;2023-08-06T08:34:53;99331.31;;;15.63;100.00
54854;BME280;40747;49.480;8.658;2023-08-06T08:37:18;99332.47;;;15.71;100.00
54854;BME280;40747;49.480;8.658;2023-08-06T08:39:44;99332.56;;;15.70;100.00
54854;BME280;40747;49.480;8.658;2023-08-06T08:42:10;99342.22;;;15.58;100.00
54854;BME280;40747;49.480;8.658;2023-08-06T08:44:36;99338.66;;;15.45;100.00
54854;BME280;40747;49.480;8.658;2023-08-06T08:47:07;99331.22;;;15.37;100.00
54854;BME280;40747;49.480;8.658;2023-08-06T08:49:37;99329.97;;;15.43;100.00
54854;BME280;40747;49.480;8.658;2023-08-06T08:52:03;99327.66;;;15.51;100.00
54854;BME280;40747;49.480;8.658;2023-08-06T08:54:36;99329.38;;;15.78;100.00
54854;BME280;40747;49.480;8.658;2023-08-06T08:57:03;99323.69;;;15.84;100.00
54854;BME280;40747;49.480;8.658;2023-08-06T08:59:28;99328.47;;;16.04;100.00
54854;BME280;40747;49.480;8.658;2023-08-06T09:01:54;99314.13;;;16.07;100.00
54854;BME280;40747;49.480;8.658;2023-08-06T09:04:20;99318.38;;;16.22;100.00
54854;BME280;40747;49.480;8.658;2023-08-06T09:06:50;99324.09;;;16.42;100.00
54854;BME280;40747;49.480;8.658;2023-08-06T09:09:22;99322.69;;;16.49;100.00
54854;BME280;40747;49.480;8.658;2023-08-06T09:11:51;99325.56;;;16.46;100.00
54854;BME280;40747;49.480;8.658;2023-08-06T09:14:17;99320.81;;;16.38;100.00
54854;BME280;40747;49.480;8.658;2023-08-06T09:16:43;99306.63;;;16.64;100.00
54854;BME280;40747;49.480;8.658;2023-08-06T09:19:12;99299.13;;;16.82;100.00
54854;BME280;40747;49.480;8.658;2023-08-06T09:21:39;99293.44;;;16.86;100.00
54854;BME280;40747;49.480;8.658;2023-08-06T09:24:12;99296.78;;;16.77;100.00
54854;BME280;40747;49.480;8.658;2023-08-06T09:26:38;99308.31;;;16.52;100.00
54854;BME280;40747;49.480;8.658;2023-08-06T09:29:08;99311.38;;;16.34;100.00
54854;BME280;40747;49.480;8.658;2023-08-06T09:31:51;99310.94;;;16.15;100.00
54854;BME280;40747;49.480;8.658;2023-08-06T09:34:21;99319.44;;;16.07;100.00
54854;BME280;40747;49.480;8.658;2023-08-06T09:36:56;99315.41;;;16.14;100.00
54854;BME280;40747;49.480;8.658;2023-08-06T09:39:27;99318.16;;;16.26;100.00
54854;BME280;40747;49.480;8.658;2023-08-06T09:41:56;99311.94;;;16.64;100.00
54854;BME280;40747;49.480;8.658;2023-08-06T09:44:22;99314.69;;;16.99;100.00
54854;BME280;40747;49.480;8.658;2023-08-06T09:46:50;99308.25;;;16.91;100.00
54854;BME280;40747;49.480;8.658;2023-08-06T09:49:18;99298.00;;;16.97;100.00
54854;BME280;40747;49.480;8.658;2023-08-06T09:51:44;99287.59;;;16.81;100.00
54854;BME280;40747;49.480;8.658;2023-08-06T09:54:11;99301.03;;;16.80;100.00
54854;BME280;40747;49.480;8.658;2023-08-06T09:56:37;99295.47;;;16.59;100.00
54854;BME280;40747;49.480;8.658;2023-08-06T09:59:06;99312.38;;;16.58;100.00
54854;BME280;40747;49.480;8.658;2023-08-06T10:01:35;99317.09;;;16.41;100.00
54854;BME280;40747;49.480;8.658;2023-08-06T10:04:05;99328.69;;;16.27;100.00
54854;BME280;40747;49.480;8.658;2023-08-06T10:06:34;99335.28;;;16.21;100.00
54854;BME280;40747;49.480;8.658;2023-08-06T10:09:05;99337.50;;;16.28;100.00
54854;BME280;40747;49.480;8.658;2023-08-06T10:11:31;99327.72;;;16.41;100.00
54854;BME280;40747;49.480;8.658;2023-08-06T10:16:41;99334.31;;;16.48;100.00
54854;BME280;40747;49.480;8.658;2023-08-06T10:19:09;99327.19;;;16.36;100.00
54854;BME280;40747;49.480;8.658;2023-08-06T10:21:35;99334.84;;;16.15;100.00
54854;BME280;40747;49.480;8.658;2023-08-06T10:24:00;99323.28;;;16.03;100.00
54854;BME280;40747;49.480;8.658;2023-08-06T10:26:27;99348.56;;;16.09;100.00
54854;BME280;40747;49.480;8.658;2023-08-06T10:28:53;99349.94;;;15.88;100.00
54854;BME280;40747;49.480;8.658;2023-08-06T10:31:18;99352.44;;;15.77;100.00
54854;BME280;40747;49.480;8.658;2023-08-06T10:33:47;99366.97;;;15.71;100.00
54854;BME280;40747;49.480;8.658;2023-08-06T10:36:13;99367.84;;;15.72;100.00
54854;BME280;40747;49.480;8.658;2023-08-06T10:38:47;99376.03;;;15.82;100.00
54854;BME280;40747;49.480;8.658;2023-08-06T10:41:31;99370.38;;;15.73;100.00
54854;BME280;40747;49.480;8.658;2023-08-06T10:44:07;99374.94;;;15.71;100.00
54854;BME280;40747;49.480;8.658;2023-08-06T10:46:33;99367.44;;;15.78;100.00
54854;BME280;40747;49.480;8.658;2023-08-06T10:48:59;99371.97;;;15.63;100.00
54854;BME280;40747;49.480;8.658;2023-08-06T10:51:24;99381.94;;;15.72;100.00
54854;BME280;40747;49.480;8.658;2023-08-06T10:53:50;99376.44;;;15.63;100.00
54854;BME280;40747;49.480;8.658;2023-08-06T10:56:21;99381.44;;;15.80;100.00
54854;BME280;40747;49.480;8.658;2023-08-06T10:58:53;99386.38;;;15.86;100.00
54854;BME280;40747;49.480;8.658;2023-08-06T11:01:18;99381.31;;;15.69;100.00
54854;BME280;40747;49.480;8.658;2023-08-06T11:03:46;99386.00;;;15.78;100.00
54854;BME280;40747;49.480;8.658;2023-08-06T11:06:17;99380.41;;;15.83;100.00
54854;BME280;40747;49.480;8.658;2023-08-06T11:08:51;99382.75;;;15.87;100.00
54854;BME280;40747;49.480;8.658;2023-08-06T11:11:17;99394.56;;;15.83;100.00
54854;BME280;40747;49.480;8.658;2023-08-06T11:13:44;99404.78;;;15.75;100.00
54854;BME280;40747;49.480;8.658;2023-08-06T11:16:12;99382.69;;;15.62;100.00
54854;BME280;40747;49.480;8.658;2023-08-06T11:18:39;99407.97;;;15.80;100.00
54854;BME280;40747;49.480;8.658;2023-08-06T11:21:05;99411.13;;;15.87;100.00
54854;BME280;40747;49.480;8.658;2023-08-06T11:23:30;99410.47;;;15.83;100.00
54854;BME280;40747;49.480;8.658;2023-08-06T11:25:56;99417.88;;;15.78;100.00
54854;BME280;40747;49.480;8.658;2023-08-06T11:28:22;99421.09;;;15.83;100.00
54854;BME280;40747;49.480;8.658;2023-08-06T11:30:48;99422.66;;;15.73;100.00
54854;BME280;40747;49.480;8.658;2023-08-06T11:33:13;99426.91;;;15.76;100.00
54854;BME280;40747;49.480;8.658;2023-08-06T11:35:39;99416.13;;;15.92;100.00
54854;BME280;40747;49.480;8.658;2023-08-06T11:38:05;99435.75;;;15.89;100.00
54854;BME280;40747;49.480;8.658;2023-08-06T11:40:32;99425.78;;;15.93;100.00
54854;BME280;40747;49.480;8.658;2023-08-06T11:42:57;99429.28;;;15.93;100.00
54854;BME280;40747;49.480;8.658;2023-08-06T11:45:26;99442.25;;;15.98;100.00
54854;BME280;40747;49.480;8.658;2023-08-06T11:47:52;99428.66;;;15.89;100.00
54854;BME280;40747;49.480;8.658;2023-08-06T11:50:27;99435.25;;;15.97;100.00
54854;BME280;40747;49.480;8.658;2023-08-06T11:53:00;99444.81;;;15.99;100.00
54854;BME280;40747;49.480;8.658;2023-08-06T11:55:27;99434.28;;;15.98;100.00
54854;BME280;40747;49.480;8.658;2023-08-06T11:57:54;99445.16;;;16.08;100.00
54854;BME280;40747;49.480;8.658;2023-08-06T12:00:20;99450.38;;;16.09;100.00
54854;BME280;40747;49.480;8.658;2023-08-06T12:02:48;99454.50;;;16.00;100.00
54854;BME280;40747;49.480;8.658;2023-08-06T12:05:17;99462.88;;;16.07;100.00
54854;BME280;40747;49.480;8.658;2023-08-06T12:07:54;99465.69;;;16.18;100.00
54854;BME280;40747;49.480;8.658;2023-08-06T12:10:21;99477.59;;;16.13;100.00
54854;BME280;40747;49.480;8.658;2023-08-06T12:12:47;99482.28;;;16.35;100.00
54854;BME280;40747;49.480;8.658;2023-08-06T12:15:13;99485.75;;;16.22;98.62
54854;BME280;40747;49.480;8.658;2023-08-06T12:17:39;99483.88;;;16.25;96.93
54854;BME280;40747;49.480;8.658;2023-08-06T12:20:05;99488.41;;;16.22;95.58
54854;BME280;40747;49.480;8.658;2023-08-06T12:22:31;99489.47;;;16.20;94.70
54854;BME280;40747;49.480;8.658;2023-08-06T12:25:03;99496.88;;;16.42;95.07
54854;BME280;40747;49.480;8.658;2023-08-06T12:27:31;99493.97;;;16.45;93.90
54854;BME280;40747;49.480;8.658;2023-08-06T12:29:57;99503.44;;;16.49;93.33
54854;BME280;40747;49.480;8.658;2023-08-06T12:32:22;99493.22;;;16.43;92.01
54854;BME280;40747;49.480;8.658;2023-08-06T12:34:47;99505.03;;;16.52;92.73
54854;BME280;40747;49.480;8.658;2023-08-06T12:37:13;99506.50;;;16.43;90.89
54854;BME280;40747;49.480;8.658;2023-08-06T12:39:38;99508.44;;;16.54;92.67
54854;BME280;40747;49.480;8.658;2023-08-06T12:42:05;99509.50;;;16.38;92.82
54854;BME280;40747;49.480;8.658;2023-08-06T12:44:31;99527.59;;;16.46;91.32
54854;BME280;40747;49.480;8.658;2023-08-06T12:46:57;99519.94;;;16.67;93.30
54854;BME280;40747;49.480;8.658;2023-08-06T12:49:22;99521.44;;;16.84;95.89
54854;BME280;40747;49.480;8.658;2023-08-06T12:51:48;99524.00;;;16.86;96.33